Terminal Aerodrome Forecast
Issued by NWS Caribou, ME

Home | Current Version | Previous Version | Text Only | Print | Product List | Glossary On
Versions: 1 2 3 4 5 6 7 8 9 10 11 12 13 14 15 16 17 18 19 20 21 22 23 24 25 26 27 28 29 30
000
FTUS41 KCAR 011200 AAB
TAFCAR
TAF AMD
KCAR 011200Z 0112/0212 VRB02KT 1SM BR BKN002
     FM011300 20004KT P6SM SCT018
     FM011500 21008KT P6SM SCT035
     FM012000 21008KT P6SM VCSH BKN040
     FM020200 21004KT P6SM SCT025
     FM020700 VRB03KT 2SM BR BKN008
     FM021100 VRB03KT 6SM BR BKN020=

USA.gov is the U.S. government's official web portal to all federal, state and local government web resources and services.